createdAt,value
2022-10-19T00:01:03.118Z,102765.66
2022-10-19T00:06:17.876Z,102761.06
2022-10-19T00:11:21.857Z,102754.06
2022-10-19T00:16:27.067Z,102764.00
2022-10-19T00:21:32.371Z,102760.25
2022-10-19T00:26:36.209Z,102743.62
2022-10-19T00:31:40.421Z,102740.00
2022-10-19T00:36:45.580Z,102740.34
2022-10-19T00:41:50.002Z,102743.38
2022-10-19T00:46:54.223Z,102757.22
2022-10-19T00:52:03.952Z,102749.31
2022-10-19T00:57:08.897Z,102749.31
2022-10-19T01:02:13.640Z,102753.22
2022-10-19T01:07:19.391Z,102748.34
2022-10-19T01:12:34.172Z,102755.66
2022-10-19T01:17:50.686Z,102754.88
2022-10-19T01:23:06.665Z,102741.84
2022-10-19T01:28:25.649Z,102741.00
2022-10-19T01:33:40.180Z,102755.75
2022-10-19T01:38:52.152Z,102747.88
2022-10-19T01:44:01.371Z,102752.00
2022-10-19T01:49:12.837Z,102750.91
2022-10-19T01:54:20.076Z,102745.09
2022-10-19T01:59:24.580Z,102746.81
2022-10-19T02:04:29.873Z,102732.75
2022-10-19T02:09:33.640Z,102718.59
2022-10-19T02:14:41.080Z,102722.72
2022-10-19T02:19:46.092Z,102718.31
2022-10-19T02:24:49.867Z,102709.59
2022-10-19T02:29:54.944Z,102702.13
2022-10-19T02:35:00.086Z,102683.56
2022-10-19T02:40:04.163Z,102685.69
2022-10-19T02:45:11.351Z,102691.94
2022-10-19T02:50:18.010Z,102698.78
2022-10-19T02:55:21.791Z,102695.31
2022-10-19T03:00:25.449Z,102690.69
2022-10-19T03:05:30.840Z,102695.03
2022-10-19T03:10:34.578Z,102689.06
2022-10-19T03:15:38.261Z,102692.97
2022-10-19T03:20:43.284Z,102689.56
2022-10-19T03:25:47.000Z,102677.94
2022-10-19T03:30:50.704Z,102682.72
2022-10-19T03:36:18.449Z,102680.72
2022-10-19T03:41:23.111Z,102668.56
2022-10-19T03:46:26.969Z,102671.28
2022-10-19T03:51:33.363Z,102678.88
2022-10-19T03:56:37.478Z,102688.44
2022-10-19T04:01:43.370Z,102679.69
2022-10-19T04:06:50.847Z,102676.97
2022-10-19T04:11:54.610Z,102686.25
2022-10-19T04:16:58.289Z,102683.72
2022-10-19T04:22:03.283Z,102665.16
2022-10-19T04:27:06.927Z,102666.19
2022-10-19T04:32:10.659Z,102664.25
2022-10-19T04:37:15.672Z,102674.69
2022-10-19T04:42:19.288Z,102668.53
2022-10-19T04:47:22.994Z,102677.03
2022-10-19T04:52:28.010Z,102681.81
2022-10-19T04:57:31.952Z,102684.28
2022-10-19T05:02:35.855Z,102678.75
2022-10-19T05:07:40.940Z,102671.78
2022-10-19T05:12:44.644Z,102667.94
2022-10-19T05:17:48.398Z,102660.09
2022-10-19T05:22:53.399Z,102655.31
2022-10-19T05:27:57.064Z,102658.69
2022-10-19T05:33:00.706Z,102647.22
2022-10-19T05:38:05.744Z,102646.44
2022-10-19T05:43:09.406Z,102647.88
2022-10-19T05:48:13.066Z,102645.03
2022-10-19T05:53:18.056Z,102638.84
2022-10-19T05:58:22.008Z,102641.19
2022-10-19T06:03:27.225Z,102632.56
2022-10-19T06:08:32.353Z,102628.72
2022-10-19T06:13:36.682Z,102631.16
2022-10-19T06:18:41.865Z,102619.53
2022-10-19T06:23:51.281Z,102616.34
2022-10-19T06:28:56.708Z,102630.00
2022-10-19T06:34:00.699Z,102624.09
2022-10-19T06:39:05.761Z,102623.03
2022-10-19T06:44:10.295Z,102624.19
2022-10-19T06:49:15.129Z,102633.59
2022-10-19T06:54:20.235Z,102639.38
2022-10-19T06:59:23.948Z,102641.56
2022-10-19T07:04:27.774Z,102638.56
2022-10-19T07:09:32.857Z,102635.47
2022-10-19T07:14:38.761Z,102636.22
2022-10-19T07:19:42.649Z,102636.81
2022-10-19T07:24:47.679Z,102650.69
2022-10-19T07:29:51.408Z,102636.47
2022-10-19T07:34:55.041Z,102630.22
2022-10-19T07:40:00.163Z,102631.84
2022-10-19T07:45:03.871Z,102627.25
2022-10-19T07:50:07.945Z,102629.66
2022-10-19T07:55:12.938Z,102628.91
2022-10-19T08:00:16.921Z,102610.66
2022-10-19T08:05:20.593Z,102608.78
2022-10-19T08:10:25.672Z,102608.00
2022-10-19T08:15:30.580Z,102589.41
2022-10-19T08:20:34.283Z,102576.56
2022-10-19T08:25:39.423Z,102568.91
2022-10-19T08:30:43.129Z,102563.09
2022-10-19T08:35:46.800Z,102558.34
2022-10-19T08:40:51.934Z,102569.66
2022-10-19T08:46:03.222Z,102559.72
2022-10-19T08:51:09.280Z,102559.09
2022-10-19T09:01:56.389Z,102556.47
2022-10-19T09:07:19.335Z,102554.31
2022-10-19T09:12:34.840Z,102552.94
2022-10-19T09:17:38.745Z,102568.66
2022-10-19T09:22:44.432Z,102578.63
2022-10-19T09:27:59.421Z,102567.91
2022-10-19T09:33:04.139Z,102559.66
2022-10-19T09:38:08.383Z,102553.56
2022-10-19T09:43:21.613Z,102559.41
2022-10-19T09:48:31.687Z,102548.56
2022-10-19T09:53:35.770Z,102533.94
2022-10-19T09:58:48.502Z,102520.47
2022-10-19T10:03:55.213Z,102533.91
2022-10-19T10:09:00.011Z,102532.00
2022-10-19T10:14:17.224Z,102520.97
2022-10-19T10:19:24.181Z,102503.06
2022-10-19T10:24:32.884Z,102510.66
2022-10-19T10:29:39.784Z,102510.47
2022-10-19T10:34:54.787Z,102490.34
2022-10-19T10:40:03.910Z,102485.34
2022-10-19T10:45:18.486Z,102470.31
2022-10-19T10:50:24.976Z,102468.13
2022-10-19T10:55:29.808Z,102468.16
2022-10-19T11:00:37.767Z,102461.38
2022-10-19T11:05:45.810Z,102459.97
2022-10-19T11:10:52.574Z,102454.72
2022-10-19T11:16:03.419Z,102438.28
2022-10-19T11:21:10.780Z,102423.34
2022-10-19T11:26:26.696Z,102414.53
2022-10-19T11:31:42.873Z,102403.44
2022-10-19T11:36:54.912Z,102391.59
2022-10-19T11:42:08.096Z,102383.13
2022-10-19T11:47:29.038Z,102364.41
2022-10-19T11:52:40.709Z,102351.22
2022-10-19T11:57:52.149Z,102342.34
2022-10-19T12:03:24.982Z,102333.22
2022-10-19T12:08:42.778Z,102333.41
2022-10-19T12:13:52.172Z,102319.81
2022-10-19T12:19:01.517Z,102318.78
2022-10-19T12:24:11.757Z,102314.91
2022-10-19T12:29:18.856Z,102302.25
2022-10-19T12:34:33.598Z,102298.56
2022-10-19T12:39:44.354Z,102291.88
2022-10-19T12:45:22.006Z,102281.31
2022-10-19T12:51:06.376Z,102281.88
2022-10-19T12:56:15.744Z,102266.22
2022-10-19T13:01:23.530Z,102261.03
2022-10-19T13:06:37.155Z,102253.91
2022-10-19T13:12:23.544Z,102252.16
2022-10-19T13:17:43.838Z,102236.22
2022-10-19T13:22:50.883Z,102217.63
2022-10-19T13:27:55.995Z,102208.56
2022-10-19T13:32:59.726Z,102191.66
2022-10-19T13:38:26.438Z,102190.81
2022-10-19T13:43:33.681Z,102181.34
2022-10-19T13:48:51.056Z,102170.91
2022-10-19T13:54:07.758Z,102159.59
2022-10-19T13:59:33.408Z,102153.91
2022-10-19T14:04:46.139Z,102164.88
2022-10-19T14:10:08.998Z,102171.91
2022-10-19T14:15:21.486Z,102173.94
2022-10-19T14:20:31.776Z,102159.13
2022-10-19T14:25:36.864Z,102172.56
2022-10-19T14:30:40.588Z,102154.84
2022-10-19T14:35:49.998Z,102145.09
2022-10-19T14:40:55.984Z,102152.09
2022-10-19T14:46:14.085Z,102153.13
2022-10-19T14:51:32.989Z,102139.56
2022-10-19T14:56:44.333Z,102115.91
2022-10-19T15:01:51.048Z,102121.53
2022-10-19T15:06:56.445Z,102111.06
2022-10-19T15:12:08.415Z,102103.25
2022-10-19T15:17:24.787Z,102109.59
2022-10-19T15:22:40.494Z,102111.00
2022-10-19T15:27:47.561Z,102094.97
2022-10-19T15:32:55.059Z,102081.75
2022-10-19T15:38:04.218Z,102077.44
2022-10-19T15:43:35.835Z,102060.97
2022-10-19T15:48:51.117Z,102057.34
2022-10-19T15:53:59.159Z,102039.56
2022-10-19T15:59:09.401Z,102031.25
2022-10-19T16:04:13.136Z,102027.91
2022-10-19T16:09:19.808Z,102028.06
2022-10-19T16:14:26.440Z,102028.47
2022-10-19T16:19:30.495Z,102017.06
2022-10-19T16:24:34.331Z,102001.16
2022-10-19T16:29:39.327Z,101999.56
2022-10-19T16:34:43.076Z,101992.41
2022-10-19T16:39:46.806Z,101985.47
2022-10-19T16:44:51.820Z,101967.62
2022-10-19T16:49:59.940Z,101958.47
2022-10-19T16:55:03.771Z,101957.72
2022-10-19T17:00:10.108Z,101946.00
2022-10-19T17:05:13.923Z,101943.75
2022-10-19T17:10:17.944Z,101944.44
2022-10-19T17:15:41.907Z,101949.31
2022-10-19T17:20:46.457Z,101945.50
2022-10-19T17:25:50.419Z,101944.94
2022-10-19T17:30:57.652Z,101937.28
2022-10-19T17:36:06.652Z,101930.00
2022-10-19T17:41:12.755Z,101945.19
2022-10-19T17:46:19.986Z,101944.31
2022-10-19T17:51:27.170Z,101967.38
2022-10-19T17:56:31.100Z,101968.69
2022-10-19T18:01:36.895Z,101975.22
2022-10-19T18:06:40.861Z,101955.56
2022-10-19T18:11:45.861Z,101961.34
2022-10-19T18:16:51.988Z,101952.09
2022-10-19T18:21:55.760Z,101943.75
2022-10-19T18:26:59.452Z,101950.22
2022-10-19T18:37:08.510Z,101935.34
2022-10-19T18:42:13.096Z,101928.72
2022-10-19T18:47:18.267Z,101914.41
2022-10-19T18:52:21.980Z,101895.38
2022-10-19T18:57:30.852Z,101885.22
2022-10-19T19:02:46.507Z,101874.69
2022-10-19T19:07:51.467Z,101873.28
2022-10-19T19:12:55.241Z,101867.66
2022-10-19T19:18:00.281Z,101855.12
2022-10-19T19:23:04.086Z,101847.94
2022-10-19T19:28:07.783Z,101839.78
2022-10-19T19:33:13.548Z,101832.63
2022-10-19T19:38:17.540Z,101825.09
2022-10-19T19:43:21.230Z,101813.37
2022-10-19T19:48:26.346Z,101807.22
2022-10-19T19:53:30.027Z,101799.50
2022-10-19T19:58:33.796Z,101785.19
2022-10-19T20:03:39.262Z,101784.38
2022-10-19T20:08:43.825Z,101756.31
2022-10-19T20:13:47.791Z,101769.88
2022-10-19T20:18:56.482Z,101775.47
2022-10-19T20:24:00.432Z,101794.16
2022-10-19T20:29:05.257Z,101803.06
2022-10-19T20:34:13.568Z,101790.59
2022-10-19T20:39:17.430Z,101778.47
2022-10-19T20:44:21.646Z,101779.53
2022-10-19T20:49:26.664Z,101777.19
2022-10-19T20:54:30.386Z,101762.59
2022-10-19T20:59:34.189Z,101754.97
2022-10-19T21:04:39.451Z,101757.97
2022-10-19T21:09:43.360Z,101763.59
2022-10-19T21:14:47.100Z,101764.72
2022-10-19T21:19:52.110Z,101749.31
2022-10-19T21:24:55.913Z,101751.25
2022-10-19T21:29:59.571Z,101736.62
2022-10-19T21:35:05.808Z,101726.97
2022-10-19T21:40:10.431Z,101726.13
2022-10-19T21:45:30.665Z,101727.09
2022-10-19T21:50:36.039Z,101716.41
2022-10-19T21:55:39.711Z,101703.69
2022-10-19T22:00:44.425Z,101700.69
2022-10-19T22:05:53.300Z,101691.31
2022-10-19T22:10:57.063Z,101680.78
2022-10-19T22:16:05.815Z,101670.16
2022-10-19T22:21:13.842Z,101665.97
2022-10-19T22:26:20.257Z,101668.06
2022-10-19T22:31:23.996Z,101669.66
2022-10-19T22:36:29.576Z,101664.44
2022-10-19T22:42:28.076Z,101652.47
2022-10-19T22:47:50.939Z,101638.19
2022-10-19T22:52:55.964Z,101625.97
2022-10-19T22:57:59.710Z,101618.12
2022-10-19T23:03:03.420Z,101627.53
2022-10-19T23:08:08.506Z,101622.09
2022-10-19T23:13:12.183Z,101615.78
2022-10-19T23:18:15.931Z,101605.31
2022-10-19T23:23:21.112Z,101608.16
2022-10-19T23:28:24.992Z,101604.34
2022-10-19T23:33:28.731Z,101592.47
2022-10-19T23:38:33.865Z,101591.41
2022-10-19T23:43:38.569Z,101577.50
2022-10-19T23:48:42.715Z,101565.63
2022-10-19T23:53:49.680Z,101579.28
2022-10-19T23:58:53.492Z,101551.84
